sensor_id;sensor_type;location;lat;lon;timestamp;P1;durP1;ratioP1;P2;durP2;ratioP2
52798;SDS011;38667;42.872;74.622;2024-01-06T00:01:00;66.63;;;32.13;;
52798;SDS011;38667;42.872;74.622;2024-01-06T00:03:26;56.27;;;31.00;;
52798;SDS011;38667;42.872;74.622;2024-01-06T00:05:53;74.63;;;33.60;;
52798;SDS011;38667;42.872;74.622;2024-01-06T00:08:19;78.37;;;33.07;;
52798;SDS011;38667;42.872;74.622;2024-01-06T00:10:45;79.57;;;35.07;;
52798;SDS011;38667;42.872;74.622;2024-01-06T00:13:11;65.63;;;33.47;;
52798;SDS011;38667;42.872;74.622;2024-01-06T00:15:39;60.37;;;29.27;;
52798;SDS011;38667;42.872;74.622;2024-01-06T00:18:05;61.70;;;30.00;;
52798;SDS011;38667;42.872;74.622;2024-01-06T00:20:31;315.90;;;44.43;;
52798;SDS011;38667;42.872;74.622;2024-01-06T00:22:57;244.67;;;40.97;;
52798;SDS011;38667;42.872;74.622;2024-01-06T00:25:24;131.53;;;32.77;;
52798;SDS011;38667;42.872;74.622;2024-01-06T00:27:50;99.47;;;30.53;;
52798;SDS011;38667;42.872;74.622;2024-01-06T00:30:16;73.38;;;28.50;;
52798;SDS011;38667;42.872;74.622;2024-01-06T00:32:44;64.23;;;28.47;;
52798;SDS011;38667;42.872;74.622;2024-01-06T00:35:10;64.13;;;29.13;;
52798;SDS011;38667;42.872;74.622;2024-01-06T00:37:36;64.73;;;27.50;;
52798;SDS011;38667;42.872;74.622;2024-01-06T00:40:03;70.37;;;26.97;;
52798;SDS011;38667;42.872;74.622;2024-01-06T00:42:30;74.23;;;26.30;;
52798;SDS011;38667;42.872;74.622;2024-01-06T00:44:56;102.67;;;32.40;;
52798;SDS011;38667;42.872;74.622;2024-01-06T00:47:22;108.00;;;32.67;;
52798;SDS011;38667;42.872;74.622;2024-01-06T00:49:50;160.20;;;44.87;;
52798;SDS011;38667;42.872;74.622;2024-01-06T00:52:16;164.13;;;47.23;;
52798;SDS011;38667;42.872;74.622;2024-01-06T00:54:42;115.17;;;37.00;;
52798;SDS011;38667;42.872;74.622;2024-01-06T00:57:09;106.80;;;34.50;;
52798;SDS011;38667;42.872;74.622;2024-01-06T00:59:35;133.33;;;41.43;;
52798;SDS011;38667;42.872;74.622;2024-01-06T01:02:01;143.07;;;43.73;;
52798;SDS011;38667;42.872;74.622;2024-01-06T01:04:27;124.93;;;41.77;;
52798;SDS011;38667;42.872;74.622;2024-01-06T01:06:55;144.90;;;46.67;;
52798;SDS011;38667;42.872;74.622;2024-01-06T01:09:21;123.23;;;43.30;;
52798;SDS011;38667;42.872;74.622;2024-01-06T01:11:47;108.07;;;38.90;;
52798;SDS011;38667;42.872;74.622;2024-01-06T01:14:14;84.40;;;33.33;;
52798;SDS011;38667;42.872;74.622;2024-01-06T01:16:40;85.97;;;33.87;;
52798;SDS011;38667;42.872;74.622;2024-01-06T01:19:06;65.47;;;28.93;;
52798;SDS011;38667;42.872;74.622;2024-01-06T01:21:32;61.20;;;25.67;;
52798;SDS011;38667;42.872;74.622;2024-01-06T01:24:00;77.27;;;29.50;;
52798;SDS011;38667;42.872;74.622;2024-01-06T01:26:26;80.97;;;30.93;;
52798;SDS011;38667;42.872;74.622;2024-01-06T01:28:52;123.43;;;42.37;;
52798;SDS011;38667;42.872;74.622;2024-01-06T01:31:19;126.07;;;44.17;;
52798;SDS011;38667;42.872;74.622;2024-01-06T01:33:45;96.10;;;34.13;;
52798;SDS011;38667;42.872;74.622;2024-01-06T01:36:11;72.60;;;32.90;;
52798;SDS011;38667;42.872;74.622;2024-01-06T01:38:38;74.80;;;32.30;;
52798;SDS011;38667;42.872;74.622;2024-01-06T01:41:06;70.23;;;33.83;;
52798;SDS011;38667;42.872;74.622;2024-01-06T01:43:32;81.20;;;38.57;;
52798;SDS011;38667;42.872;74.622;2024-01-06T01:45:58;81.20;;;37.70;;
52798;SDS011;38667;42.872;74.622;2024-01-06T01:48:25;84.40;;;40.20;;
52798;SDS011;38667;42.872;74.622;2024-01-06T01:50:51;80.77;;;39.20;;
52798;SDS011;38667;42.872;74.622;2024-01-06T01:53:19;93.53;;;41.60;;
52798;SDS011;38667;42.872;74.622;2024-01-06T01:55:45;93.37;;;43.73;;
52798;SDS011;38667;42.872;74.622;2024-01-06T01:58:14;102.33;;;47.07;;
52798;SDS011;38667;42.872;74.622;2024-01-06T02:00:41;91.77;;;45.83;;
52798;SDS011;38667;42.872;74.622;2024-01-06T02:03:08;103.67;;;45.30;;
52798;SDS011;38667;42.872;74.622;2024-01-06T02:05:36;103.83;;;46.57;;
52798;SDS011;38667;42.872;74.622;2024-01-06T02:08:03;88.33;;;43.73;;
52798;SDS011;38667;42.872;74.622;2024-01-06T02:10:29;99.10;;;45.10;;
52798;SDS011;38667;42.872;74.622;2024-01-06T02:12:56;96.00;;;45.80;;
52798;SDS011;38667;42.872;74.622;2024-01-06T02:15:23;100.70;;;46.83;;
52798;SDS011;38667;42.872;74.622;2024-01-06T02:17:50;104.90;;;48.33;;
52798;SDS011;38667;42.872;74.622;2024-01-06T02:20:16;101.73;;;48.60;;
52798;SDS011;38667;42.872;74.622;2024-01-06T02:22:45;102.23;;;49.77;;
52798;SDS011;38667;42.872;74.622;2024-01-06T02:25:12;101.27;;;48.53;;
52798;SDS011;38667;42.872;74.622;2024-01-06T02:27:38;110.33;;;50.23;;
52798;SDS011;38667;42.872;74.622;2024-01-06T02:30:05;104.23;;;48.07;;
52798;SDS011;38667;42.872;74.622;2024-01-06T02:32:32;100.50;;;50.23;;
52798;SDS011;38667;42.872;74.622;2024-01-06T02:34:58;108.33;;;50.60;;
52798;SDS011;38667;42.872;74.622;2024-01-06T02:37:25;114.57;;;52.80;;
52798;SDS011;38667;42.872;74.622;2024-01-06T02:39:52;111.87;;;52.30;;
52798;SDS011;38667;42.872;74.622;2024-01-06T02:42:19;99.60;;;48.40;;
52798;SDS011;38667;42.872;74.622;2024-01-06T02:44:45;111.83;;;48.40;;
52798;SDS011;38667;42.872;74.622;2024-01-06T02:47:11;99.33;;;45.43;;
52798;SDS011;38667;42.872;74.622;2024-01-06T02:49:37;95.23;;;45.33;;
52798;SDS011;38667;42.872;74.622;2024-01-06T02:52:04;87.60;;;42.37;;
52798;SDS011;38667;42.872;74.622;2024-01-06T02:54:30;85.73;;;42.63;;
52798;SDS011;38667;42.872;74.622;2024-01-06T02:56:58;95.90;;;41.40;;
52798;SDS011;38667;42.872;74.622;2024-01-06T02:59:24;78.10;;;38.67;;
52798;SDS011;38667;42.872;74.622;2024-01-06T03:01:50;79.83;;;37.70;;
52798;SDS011;38667;42.872;74.622;2024-01-06T03:04:17;78.17;;;33.63;;
52798;SDS011;38667;42.872;74.622;2024-01-06T03:06:43;72.10;;;32.45;;
52798;SDS011;38667;42.872;74.622;2024-01-06T03:09:09;68.27;;;30.50;;
52798;SDS011;38667;42.872;74.622;2024-01-06T03:11:35;63.87;;;31.17;;
52798;SDS011;38667;42.872;74.622;2024-01-06T03:14:03;56.20;;;27.10;;
52798;SDS011;38667;42.872;74.622;2024-01-06T03:16:29;51.03;;;25.53;;
52798;SDS011;38667;42.872;74.622;2024-01-06T03:18:56;65.13;;;25.00;;
52798;SDS011;38667;42.872;74.622;2024-01-06T03:21:22;56.92;;;24.88;;
52798;SDS011;38667;42.872;74.622;2024-01-06T03:23:48;47.90;;;22.37;;
52798;SDS011;38667;42.872;74.622;2024-01-06T03:26:14;44.83;;;21.73;;
52798;SDS011;38667;42.872;74.622;2024-01-06T03:28:42;63.33;;;27.27;;
52798;SDS011;38667;42.872;74.622;2024-01-06T03:31:10;64.83;;;24.67;;
52798;SDS011;38667;42.872;74.622;2024-01-06T03:33:36;52.93;;;23.00;;
52798;SDS011;38667;42.872;74.622;2024-01-06T03:36:04;52.70;;;21.90;;
52798;SDS011;38667;42.872;74.622;2024-01-06T03:38:30;44.90;;;21.30;;
52798;SDS011;38667;42.872;74.622;2024-01-06T03:40:57;49.15;;;21.33;;
52798;SDS011;38667;42.872;74.622;2024-01-06T03:43:23;51.72;;;21.80;;
52798;SDS011;38667;42.872;74.622;2024-01-06T03:45:49;48.28;;;21.85;;
52798;SDS011;38667;42.872;74.622;2024-01-06T03:48:17;50.67;;;21.40;;
52798;SDS011;38667;42.872;74.622;2024-01-06T03:50:43;66.30;;;23.20;;
52798;SDS011;38667;42.872;74.622;2024-01-06T03:53:09;84.30;;;30.27;;
52798;SDS011;38667;42.872;74.622;2024-01-06T03:55:35;52.42;;;21.92;;
52798;SDS011;38667;42.872;74.622;2024-01-06T03:58:01;49.90;;;21.80;;
52798;SDS011;38667;42.872;74.622;2024-01-06T04:00:28;59.53;;;24.93;;
52798;SDS011;38667;42.872;74.622;2024-01-06T04:02:54;72.25;;;26.13;;
52798;SDS011;38667;42.872;74.622;2024-01-06T04:05:22;66.97;;;25.13;;
52798;SDS011;38667;42.872;74.622;2024-01-06T04:07:48;77.93;;;27.33;;
52798;SDS011;38667;42.872;74.622;2024-01-06T04:10:14;45.05;;;20.25;;
52798;SDS011;38667;42.872;74.622;2024-01-06T04:12:40;62.53;;;24.00;;
52798;SDS011;38667;42.872;74.622;2024-01-06T04:15:07;53.77;;;22.63;;
52798;SDS011;38667;42.872;74.622;2024-01-06T04:17:33;95.73;;;46.03;;
52798;SDS011;38667;42.872;74.622;2024-01-06T04:20:00;59.25;;;26.77;;
52798;SDS011;38667;42.872;74.622;2024-01-06T04:22:27;82.05;;;35.03;;
52798;SDS011;38667;42.872;74.622;2024-01-06T04:24:53;81.10;;;34.63;;
52798;SDS011;38667;42.872;74.622;2024-01-06T04:27:20;100.50;;;38.33;;
52798;SDS011;38667;42.872;74.622;2024-01-06T04:29:46;81.90;;;31.93;;
52798;SDS011;38667;42.872;74.622;2024-01-06T04:32:12;84.13;;;34.05;;
52798;SDS011;38667;42.872;74.622;2024-01-06T04:34:38;88.28;;;36.60;;
52798;SDS011;38667;42.872;74.622;2024-01-06T04:37:04;108.35;;;37.60;;
52798;SDS011;38667;42.872;74.622;2024-01-06T04:39:33;99.60;;;38.97;;
52798;SDS011;38667;42.872;74.622;2024-01-06T04:41:59;116.13;;;42.33;;
52798;SDS011;38667;42.872;74.622;2024-01-06T04:44:25;107.10;;;41.42;;
52798;SDS011;38667;42.872;74.622;2024-01-06T04:46:51;123.65;;;39.72;;
52798;SDS011;38667;42.872;74.622;2024-01-06T04:49:17;117.75;;;42.35;;
52798;SDS011;38667;42.872;74.622;2024-01-06T04:51:43;82.70;;;35.63;;
52798;SDS011;38667;42.872;74.622;2024-01-06T04:54:10;113.70;;;39.53;;
52798;SDS011;38667;42.872;74.622;2024-01-06T04:56:37;87.97;;;34.58;;
52798;SDS011;38667;42.872;74.622;2024-01-06T04:59:04;91.40;;;32.38;;
52798;SDS011;38667;42.872;74.622;2024-01-06T05:01:30;60.88;;;24.98;;
52798;SDS011;38667;42.872;74.622;2024-01-06T05:03:56;60.60;;;24.42;;
52798;SDS011;38667;42.872;74.622;2024-01-06T05:06:23;40.92;;;19.35;;
52798;SDS011;38667;42.872;74.622;2024-01-06T05:08:49;53.45;;;23.27;;
52798;SDS011;38667;42.872;74.622;2024-01-06T05:11:15;42.10;;;17.90;;
52798;SDS011;38667;42.872;74.622;2024-01-06T05:13:43;38.70;;;16.58;;
52798;SDS011;38667;42.872;74.622;2024-01-06T05:16:10;38.67;;;16.83;;
52798;SDS011;38667;42.872;74.622;2024-01-06T05:18:36;26.23;;;13.13;;
52798;SDS011;38667;42.872;74.622;2024-01-06T05:21:02;43.35;;;15.15;;
52798;SDS011;38667;42.872;74.622;2024-01-06T05:23:29;33.35;;;14.05;;
52798;SDS011;38667;42.872;74.622;2024-01-06T05:25:55;41.40;;;15.40;;
52798;SDS011;38667;42.872;74.622;2024-01-06T05:28:21;52.17;;;17.73;;
52798;SDS011;38667;42.872;74.622;2024-01-06T05:30:49;38.58;;;15.57;;
52798;SDS011;38667;42.872;74.622;2024-01-06T05:33:16;33.72;;;14.55;;
52798;SDS011;38667;42.872;74.622;2024-01-06T05:35:42;41.88;;;12.13;;
52798;SDS011;38667;42.872;74.622;2024-01-06T05:38:08;22.65;;;10.60;;
52798;SDS011;38667;42.872;74.622;2024-01-06T05:40:34;40.15;;;16.05;;
52798;SDS011;38667;42.872;74.622;2024-01-06T05:43:01;28.40;;;12.38;;
52798;SDS011;38667;42.872;74.622;2024-01-06T05:45:27;26.08;;;12.90;;
52798;SDS011;38667;42.872;74.622;2024-01-06T05:47:55;22.75;;;9.80;;
52798;SDS011;38667;42.872;74.622;2024-01-06T05:50:21;26.70;;;11.05;;
52798;SDS011;38667;42.872;74.622;2024-01-06T05:52:47;28.33;;;12.10;;
52798;SDS011;38667;42.872;74.622;2024-01-06T05:55:13;20.40;;;9.05;;
52798;SDS011;38667;42.872;74.622;2024-01-06T05:57:40;21.17;;;9.60;;
52798;SDS011;38667;42.872;74.622;2024-01-06T06:00:07;24.90;;;11.30;;
52798;SDS011;38667;42.872;74.622;2024-01-06T06:02:35;28.10;;;10.90;;
52798;SDS011;38667;42.872;74.622;2024-01-06T06:05:03;38.03;;;12.88;;
52798;SDS011;38667;42.872;74.622;2024-01-06T06:07:30;20.80;;;11.95;;
52798;SDS011;38667;42.872;74.622;2024-01-06T06:09:56;25.27;;;13.32;;
52798;SDS011;38667;42.872;74.622;2024-01-06T06:12:22;34.25;;;16.13;;
52798;SDS011;38667;42.872;74.622;2024-01-06T06:14:48;71.25;;;36.50;;
52798;SDS011;38667;42.872;74.622;2024-01-06T06:17:14;36.67;;;17.63;;
52798;SDS011;38667;42.872;74.622;2024-01-06T06:19:41;58.28;;;24.33;;
52798;SDS011;38667;42.872;74.622;2024-01-06T06:22:08;47.15;;;20.08;;
52798;SDS011;38667;42.872;74.622;2024-01-06T06:24:34;52.63;;;22.70;;
52798;SDS011;38667;42.872;74.622;2024-01-06T06:27:01;32.22;;;13.30;;
52798;SDS011;38667;42.872;74.622;2024-01-06T06:29:27;27.50;;;11.80;;
52798;SDS011;38667;42.872;74.622;2024-01-06T06:31:53;41.53;;;16.75;;
52798;SDS011;38667;42.872;74.622;2024-01-06T06:34:19;46.88;;;18.20;;
52798;SDS011;38667;42.872;74.622;2024-01-06T06:36:45;61.00;;;19.27;;
52798;SDS011;38667;42.872;74.622;2024-01-06T06:39:13;39.30;;;14.70;;
52798;SDS011;38667;42.872;74.622;2024-01-06T06:41:39;63.88;;;19.20;;
52798;SDS011;38667;42.872;74.622;2024-01-06T06:44:05;41.42;;;16.25;;
52798;SDS011;38667;42.872;74.622;2024-01-06T06:46:32;57.03;;;20.98;;
52798;SDS011;38667;42.872;74.622;2024-01-06T06:48:58;41.20;;;15.90;;
52798;SDS011;38667;42.872;74.622;2024-01-06T06:51:24;37.33;;;15.95;;
52798;SDS011;38667;42.872;74.622;2024-01-06T06:53:50;31.83;;;13.75;;
52798;SDS011;38667;42.872;74.622;2024-01-06T06:56:18;31.58;;;12.68;;
52798;SDS011;38667;42.872;74.622;2024-01-06T06:58:44;35.13;;;15.82;;
52798;SDS011;38667;42.872;74.622;2024-01-06T07:01:10;35.38;;;16.90;;
52798;SDS011;38667;42.872;74.622;2024-01-06T07:03:39;53.92;;;21.80;;
52798;SDS011;38667;42.872;74.622;2024-01-06T07:06:05;38.28;;;15.93;;
52798;SDS011;38667;42.872;74.622;2024-01-06T07:08:31;27.02;;;13.35;;
52798;SDS011;38667;42.872;74.622;2024-01-06T07:10:58;42.45;;;17.33;;
52798;SDS011;38667;42.872;74.622;2024-01-06T07:13:25;48.90;;;17.55;;
52798;SDS011;38667;42.872;74.622;2024-01-06T07:15:51;35.05;;;16.98;;
52798;SDS011;38667;42.872;74.622;2024-01-06T07:18:18;31.50;;;16.27;;
52798;SDS011;38667;42.872;74.622;2024-01-06T07:20:44;37.38;;;17.20;;
52798;SDS011;38667;42.872;74.622;2024-01-06T07:23:10;27.58;;;15.52;;
52798;SDS011;38667;42.872;74.622;2024-01-06T07:25:36;34.50;;;15.52;;
52798;SDS011;38667;42.872;74.622;2024-01-06T07:28:03;37.88;;;18.08;;
52798;SDS011;38667;42.872;74.622;2024-01-06T07:30:31;36.08;;;18.33;;
52798;SDS011;38667;42.872;74.622;2024-01-06T07:32:57;38.33;;;17.02;;
52798;SDS011;38667;42.872;74.622;2024-01-06T07:35:23;41.75;;;17.23;;
52798;SDS011;38667;42.872;74.622;2024-01-06T07:37:50;38.65;;;16.88;;
52798;SDS011;38667;42.872;74.622;2024-01-06T07:40:16;41.50;;;18.20;;
52798;SDS011;38667;42.872;74.622;2024-01-06T07:42:42;53.15;;;20.25;;
52798;SDS011;38667;42.872;74.622;2024-01-06T07:45:09;32.28;;;16.67;;
52798;SDS011;38667;42.872;74.622;2024-01-06T07:47:37;34.22;;;14.75;;
52798;SDS011;38667;42.872;74.622;2024-01-06T07:50:03;40.22;;;15.60;;
52798;SDS011;38667;42.872;74.622;2024-01-06T07:52:30;41.95;;;18.73;;
52798;SDS011;38667;42.872;74.622;2024-01-06T07:54:57;35.83;;;14.38;;
52798;SDS011;38667;42.872;74.622;2024-01-06T07:57:23;36.63;;;13.25;;
52798;SDS011;38667;42.872;74.622;2024-01-06T07:59:49;33.20;;;13.38;;
52798;SDS011;38667;42.872;74.622;2024-01-06T08:02:15;25.90;;;12.32;;
52798;SDS011;38667;42.872;74.622;2024-01-06T08:04:43;31.73;;;12.45;;
52798;SDS011;38667;42.872;74.622;2024-01-06T08:07:09;30.67;;;13.45;;
52798;SDS011;38667;42.872;74.622;2024-01-06T08:09:35;50.92;;;14.63;;
52798;SDS011;38667;42.872;74.622;2024-01-06T08:12:02;39.25;;;13.90;;
52798;SDS011;38667;42.872;74.622;2024-01-06T08:14:28;38.13;;;14.18;;
52798;SDS011;38667;42.872;74.622;2024-01-06T08:16:54;32.03;;;13.68;;
52798;SDS011;38667;42.872;74.622;2024-01-06T08:19:21;29.40;;;12.50;;
52798;SDS011;38667;42.872;74.622;2024-01-06T08:21:48;35.50;;;12.38;;
52798;SDS011;38667;42.872;74.622;2024-01-06T08:24:15;33.70;;;13.52;;
52798;SDS011;38667;42.872;74.622;2024-01-06T08:26:41;40.65;;;14.80;;
52798;SDS011;38667;42.872;74.622;2024-01-06T08:29:07;34.35;;;14.25;;
52798;SDS011;38667;42.872;74.622;2024-01-06T08:31:33;40.17;;;15.18;;
52798;SDS011;38667;42.872;74.622;2024-01-06T08:33:59;61.53;;;19.10;;
52798;SDS011;38667;42.872;74.622;2024-01-06T08:36:26;45.33;;;17.50;;
52798;SDS011;38667;42.872;74.622;2024-01-06T08:38:53;44.38;;;18.83;;
52798;SDS011;38667;42.872;74.622;2024-01-06T08:41:19;51.05;;;19.45;;
52798;SDS011;38667;42.872;74.622;2024-01-06T08:43:46;57.58;;;20.13;;
52798;SDS011;38667;42.872;74.622;2024-01-06T08:46:12;38.50;;;15.43;;
52798;SDS011;38667;42.872;74.622;2024-01-06T08:48:38;30.08;;;13.70;;
52798;SDS011;38667;42.872;74.622;2024-01-06T08:51:04;78.88;;;27.45;;
52798;SDS011;38667;42.872;74.622;2024-01-06T08:53:31;63.50;;;24.30;;
52798;SDS011;38667;42.872;74.622;2024-01-06T08:55:58;52.83;;;20.85;;
52798;SDS011;38667;42.872;74.622;2024-01-06T08:58:24;50.25;;;21.67;;
52798;SDS011;38667;42.872;74.622;2024-01-06T09:00:51;57.08;;;22.13;;
52798;SDS011;38667;42.872;74.622;2024-01-06T09:03:17;56.50;;;21.20;;
52798;SDS011;38667;42.872;74.622;2024-01-06T09:05:43;75.72;;;25.40;;
52798;SDS011;38667;42.872;74.622;2024-01-06T09:08:09;76.97;;;26.45;;
52798;SDS011;38667;42.872;74.622;2024-01-06T09:10:35;52.00;;;20.38;;
52798;SDS011;38667;42.872;74.622;2024-01-06T09:13:03;48.25;;;19.27;;
52798;SDS011;38667;42.872;74.622;2024-01-06T09:15:29;48.47;;;21.13;;
52798;SDS011;38667;42.872;74.622;2024-01-06T09:17:56;37.05;;;17.30;;
52798;SDS011;38667;42.872;74.622;2024-01-06T09:20:22;58.85;;;25.20;;
52798;SDS011;38667;42.872;74.622;2024-01-06T09:22:48;47.83;;;20.17;;
52798;SDS011;38667;42.872;74.622;2024-01-06T09:25:14;53.70;;;19.45;;
52798;SDS011;38667;42.872;74.622;2024-01-06T09:27:40;31.88;;;13.38;;
52798;SDS011;38667;42.872;74.622;2024-01-06T09:30:09;28.23;;;11.63;;
52798;SDS011;38667;42.872;74.622;2024-01-06T09:32:36;26.50;;;12.57;;
52798;SDS011;38667;42.872;74.622;2024-01-06T09:35:02;61.75;;;21.80;;
52798;SDS011;38667;42.872;74.622;2024-01-06T09:37:29;44.15;;;17.85;;
52798;SDS011;38667;42.872;74.622;2024-01-06T09:39:55;43.30;;;17.42;;
52798;SDS011;38667;42.872;74.622;2024-01-06T09:42:21;37.45;;;18.23;;
52798;SDS011;38667;42.872;74.622;2024-01-06T09:44:48;36.83;;;15.75;;
52798;SDS011;38667;42.872;74.622;2024-01-06T09:47:16;39.90;;;14.30;;
52798;SDS011;38667;42.872;74.622;2024-01-06T09:49:44;44.03;;;18.50;;
52798;SDS011;38667;42.872;74.622;2024-01-06T09:52:14;25.50;;;13.15;;
52798;SDS011;38667;42.872;74.622;2024-01-06T09:54:45;61.25;;;22.75;;
52798;SDS011;38667;42.872;74.622;2024-01-06T09:57:15;42.00;;;18.65;;
52798;SDS011;38667;42.872;74.622;2024-01-06T09:59:42;76.82;;;29.15;;
52798;SDS011;38667;42.872;74.622;2024-01-06T10:02:10;64.65;;;26.00;;
52798;SDS011;38667;42.872;74.622;2024-01-06T10:04:41;52.72;;;21.83;;
52798;SDS011;38667;42.872;74.622;2024-01-06T10:07:08;38.38;;;17.50;;
52798;SDS011;38667;42.872;74.622;2024-01-06T10:09:34;43.58;;;18.05;;
52798;SDS011;38667;42.872;74.622;2024-01-06T10:12:00;39.08;;;19.60;;
52798;SDS011;38667;42.872;74.622;2024-01-06T10:14:26;40.40;;;18.80;;
52798;SDS011;38667;42.872;74.622;2024-01-06T10:16:53;41.42;;;18.75;;
52798;SDS011;38667;42.872;74.622;2024-01-06T10:19:19;40.25;;;19.20;;
52798;SDS011;38667;42.872;74.622;2024-01-06T10:21:47;62.80;;;26.98;;
52798;SDS011;38667;42.872;74.622;2024-01-06T10:24:13;48.13;;;18.85;;
52798;SDS011;38667;42.872;74.622;2024-01-06T10:26:39;46.70;;;18.20;;
52798;SDS011;38667;42.872;74.622;2024-01-06T10:29:06;44.13;;;19.95;;
52798;SDS011;38667;42.872;74.622;2024-01-06T10:31:32;47.92;;;20.90;;
52798;SDS011;38667;42.872;74.622;2024-01-06T10:33:58;41.33;;;19.15;;
52798;SDS011;38667;42.872;74.622;2024-01-06T10:36:25;62.55;;;23.52;;
52798;SDS011;38667;42.872;74.622;2024-01-06T10:38:55;48.70;;;23.00;;
52798;SDS011;38667;42.872;74.622;2024-01-06T10:41:22;55.83;;;22.38;;
52798;SDS011;38667;42.872;74.622;2024-01-06T10:43:49;39.35;;;20.73;;
52798;SDS011;38667;42.872;74.622;2024-01-06T10:46:16;51.20;;;22.33;;
52798;SDS011;38667;42.872;74.622;2024-01-06T10:48:44;50.97;;;21.08;;
52798;SDS011;38667;42.872;74.622;2024-01-06T10:51:12;43.92;;;18.60;;
52798;SDS011;38667;42.872;74.622;2024-01-06T10:53:39;51.20;;;24.88;;
52798;SDS011;38667;42.872;74.622;2024-01-06T10:56:08;50.33;;;23.30;;
52798;SDS011;38667;42.872;74.622;2024-01-06T10:58:35;63.28;;;27.17;;
52798;SDS011;38667;42.872;74.622;2024-01-06T11:01:01;74.68;;;34.67;;
52798;SDS011;38667;42.872;74.622;2024-01-06T11:03:28;92.10;;;39.72;;
52798;SDS011;38667;42.872;74.622;2024-01-06T11:05:55;135.38;;;54.65;;
52798;SDS011;38667;42.872;74.622;2024-01-06T11:08:22;148.25;;;56.35;;
52798;SDS011;38667;42.872;74.622;2024-01-06T11:10:50;145.20;;;56.08;;
52798;SDS011;38667;42.872;74.622;2024-01-06T11:13:22;157.57;;;58.72;;
52798;SDS011;38667;42.872;74.622;2024-01-06T11:15:49;133.80;;;54.00;;
52798;SDS011;38667;42.872;74.622;2024-01-06T11:18:32;151.95;;;57.97;;
52798;SDS011;38667;42.872;74.622;2024-01-06T11:21:17;151.90;;;55.08;;
52798;SDS011;38667;42.872;74.622;2024-01-06T11:23:45;156.52;;;55.97;;
52798;SDS011;38667;42.872;74.622;2024-01-06T11:26:11;155.90;;;51.90;;
52798;SDS011;38667;42.872;74.622;2024-01-06T11:28:45;131.65;;;46.88;;
52798;SDS011;38667;42.872;74.622;2024-01-06T11:31:11;113.55;;;44.50;;
52798;SDS011;38667;42.872;74.622;2024-01-06T11:33:41;105.40;;;42.38;;
52798;SDS011;38667;42.872;74.622;2024-01-06T11:36:08;94.97;;;38.25;;
52798;SDS011;38667;42.872;74.622;2024-01-06T11:38:37;92.68;;;37.05;;
52798;SDS011;38667;42.872;74.622;2024-01-06T11:41:03;82.50;;;36.38;;
52798;SDS011;38667;42.872;74.622;2024-01-06T11:43:31;95.50;;;36.88;;
52798;SDS011;38667;42.872;74.622;2024-01-06T11:46:01;82.70;;;32.17;;
52798;SDS011;38667;42.872;74.622;2024-01-06T11:48:29;77.47;;;29.20;;
52798;SDS011;38667;42.872;74.622;2024-01-06T11:50:56;75.13;;;26.67;;
52798;SDS011;38667;42.872;74.622;2024-01-06T11:53:23;52.80;;;23.58;;
52798;SDS011;38667;42.872;74.622;2024-01-06T11:55:52;64.45;;;22.60;;
52798;SDS011;38667;42.872;74.622;2024-01-06T11:58:18;56.58;;;21.33;;
52798;SDS011;38667;42.872;74.622;2024-01-06T12:00:45;65.63;;;22.45;;
52798;SDS011;38667;42.872;74.622;2024-01-06T12:03:22;68.18;;;21.17;;
52798;SDS011;38667;42.872;74.622;2024-01-06T12:05:58;66.28;;;26.75;;
52798;SDS011;38667;42.872;74.622;2024-01-06T12:08:25;62.80;;;27.90;;
52798;SDS011;38667;42.872;74.622;2024-01-06T12:10:51;67.50;;;27.55;;
52798;SDS011;38667;42.872;74.622;2024-01-06T12:13:27;59.50;;;28.05;;
52798;SDS011;38667;42.872;74.622;2024-01-06T12:15:53;72.93;;;30.30;;
52798;SDS011;38667;42.872;74.622;2024-01-06T12:18:22;74.82;;;31.77;;
52798;SDS011;38667;42.872;74.622;2024-01-06T12:20:50;67.85;;;29.58;;
52798;SDS011;38667;42.872;74.622;2024-01-06T12:23:27;89.50;;;33.97;;
52798;SDS011;38667;42.872;74.622;2024-01-06T12:25:54;93.95;;;35.30;;
52798;SDS011;38667;42.872;74.622;2024-01-06T12:28:20;86.25;;;34.33;;
52798;SDS011;38667;42.872;74.622;2024-01-06T12:30:46;90.75;;;32.63;;
52798;SDS011;38667;42.872;74.622;2024-01-06T12:33:12;76.95;;;33.40;;
52798;SDS011;38667;42.872;74.622;2024-01-06T12:35:41;73.22;;;31.77;;
52798;SDS011;38667;42.872;74.622;2024-01-06T12:38:08;84.93;;;33.50;;
52798;SDS011;38667;42.872;74.622;2024-01-06T12:40:35;74.95;;;30.73;;
52798;SDS011;38667;42.872;74.622;2024-01-06T12:43:01;63.28;;;28.40;;
52798;SDS011;38667;42.872;74.622;2024-01-06T12:45:28;63.08;;;26.90;;
52798;SDS011;38667;42.872;74.622;2024-01-06T12:47:54;57.85;;;26.50;;
52798;SDS011;38667;42.872;74.622;2024-01-06T12:50:20;58.55;;;25.52;;
52798;SDS011;38667;42.872;74.622;2024-01-06T12:52:48;61.78;;;24.30;;
52798;SDS011;38667;42.872;74.622;2024-01-06T12:55:14;49.28;;;22.63;;
52798;SDS011;38667;42.872;74.622;2024-01-06T12:57:41;48.38;;;22.40;;
52798;SDS011;38667;42.872;74.622;2024-01-06T13:00:08;52.22;;;19.67;;
52798;SDS011;38667;42.872;74.622;2024-01-06T13:02:35;50.22;;;19.77;;
52798;SDS011;38667;42.872;74.622;2024-01-06T13:05:01;44.47;;;21.05;;
52798;SDS011;38667;42.872;74.622;2024-01-06T13:07:27;43.72;;;19.88;;
52798;SDS011;38667;42.872;74.622;2024-01-06T13:09:55;42.15;;;20.42;;
52798;SDS011;38667;42.872;74.622;2024-01-06T13:12:22;45.78;;;19.13;;
52798;SDS011;38667;42.872;74.622;2024-01-06T13:14:48;38.00;;;20.75;;
52798;SDS011;38667;42.872;74.622;2024-01-06T13:17:14;46.72;;;21.42;;
52798;SDS011;38667;42.872;74.622;2024-01-06T13:19:41;43.85;;;21.85;;
52798;SDS011;38667;42.872;74.622;2024-01-06T13:22:07;53.88;;;20.15;;
52798;SDS011;38667;42.872;74.622;2024-01-06T13:24:33;45.25;;;19.75;;
52798;SDS011;38667;42.872;74.622;2024-01-06T13:27:02;44.53;;;20.80;;
52798;SDS011;38667;42.872;74.622;2024-01-06T13:29:28;47.42;;;22.10;;
52798;SDS011;38667;42.872;74.622;2024-01-06T13:31:55;38.55;;;18.33;;
52798;SDS011;38667;42.872;74.622;2024-01-06T13:34:21;45.05;;;20.67;;
52798;SDS011;38667;42.872;74.622;2024-01-06T13:36:48;41.20;;;18.83;;
52798;SDS011;38667;42.872;74.622;2024-01-06T13:39:14;36.72;;;19.13;;
52798;SDS011;38667;42.872;74.622;2024-01-06T13:41:41;38.42;;;17.63;;
52798;SDS011;38667;42.872;74.622;2024-01-06T13:44:08;40.25;;;19.27;;
52798;SDS011;38667;42.872;74.622;2024-01-06T13:46:35;39.88;;;17.17;;
52798;SDS011;38667;42.872;74.622;2024-01-06T13:49:01;35.55;;;16.77;;
52798;SDS011;38667;42.872;74.622;2024-01-06T13:51:28;33.03;;;15.27;;
52798;SDS011;38667;42.872;74.622;2024-01-06T13:53:54;29.35;;;13.13;;
52798;SDS011;38667;42.872;74.622;2024-01-06T13:56:21;27.45;;;13.20;;
52798;SDS011;38667;42.872;74.622;2024-01-06T13:58:48;31.38;;;13.80;;
52798;SDS011;38667;42.872;74.622;2024-01-06T14:01:16;28.92;;;12.75;;
52798;SDS011;38667;42.872;74.622;2024-01-06T14:03:42;25.35;;;12.00;;